Oak Harbor, Washington
Current Conditions -  °F | °C
As of 4:56 AM on Thursday 30 Oct 2014 (Local Time) from KNUW Reporting Station
Broken Clouds Broken Clouds  
Wind Chill: 52°   Ceiling: 10000
Heat Index: 52°   Visibility: 10mi
Dew Point: 47°   Wind: 9mph
Humidity: 83%   Direction: 120°ESE
Pressure: 29.92"   Gusts: NA
Location:  48.29°N, 122.64°W
Report Text: KNUW 301156Z 12008KT 10SM SCT060 BKN100 BKN120 11/08 A2992 RMK AO2 SLP136 70001 T01110083 10128 20106 58023 $
Loading
Personal Weather Stations






























Interactive Weather Map
Tropical Storm Tracking
New forecast layout! Learn more

10-Day Weather Forecast

Advertisements
Track Severe Weather on mobile